Terminal Aerodrome Forecast
Issued by NWS Twin Cities, MN

Home | Current Version | Previous Version | Graphics & Text | Print | Product List | Glossary On
Versions: 1 2 3 4 5 6 7 8 9 10 11 12 13 14 15 16 17 18
000
FTUS43 KMPX 310629 CCB
TAFEAU
TAF COR
KEAU 310629Z 3106/0106 VRB03KT 1/4SM FG VV004
      TEMPO 3108/3111 3/4SM BR BKN020
     FM311200 25006KT P6SM FEW030
     FM311600 29013G20KT P6SM SKC
     FM010000 01005KT P6SM SCT090=

USA.gov is the U.S. government's official web portal to all federal, state and local government web resources and services.